Time;durP1;ratioP1;P1;durP2;ratioP2;P2;SDS_P1;SDS_P2;PMS_P1;PMS_P2;Temp;Humidity;BMP_temperature;BMP_pressure;BME280_temperature;BME280_humidity;BME280_pressure;Samples;Min_cycle;Max_cycle;Signal;HPM_P1;HPM_P2
2021/12/04 00:00:54;;;;;;;43.75;20.90;;;;;;;;;;5043059;28;20050;-72
2021/12/04 00:03:21;;;;;;;46.25;21.17;;;;;;;;;;5033642;28;20088;-72
2021/12/04 00:05:54;;;;;;;71.55;21.98;;;;;;;;;;5034324;28;20061;-71
2021/12/04 00:08:24;;;;;;;108.30;28.08;;;;;;;;;;5042488;28;20049;-71
2021/12/04 00:10:52;;;;;;;79.45;26.30;;;;;;;;;;5043453;28;20052;-72
2021/12/04 00:13:18;;;;;;;79.80;25.77;;;;;;;;;;5054260;28;20098;-72
2021/12/04 00:15:45;;;;;;;72.82;24.40;;;;;;;;;;5054398;28;20467;-72
2021/12/04 00:18:11;;;;;;;52.80;21.33;;;;;;;;;;5054225;28;20060;-72
2021/12/04 00:20:38;;;;;;;75.43;23.25;;;;;;;;;;5054025;28;20503;-72
2021/12/04 00:23:05;;;;;;;69.32;22.00;;;;;;;;;;5051241;28;20787;-72
2021/12/04 00:25:31;;;;;;;82.95;25.17;;;;;;;;;;5041296;28;20053;-72
2021/12/04 00:27:58;;;;;;;68.85;22.45;;;;;;;;;;5052401;28;20049;-72
2021/12/04 00:30:26;;;;;;;65.60;21.33;;;;;;;;;;5053700;28;20080;-72
2021/12/04 00:32:57;;;;;;;72.38;23.17;;;;;;;;;;5053708;28;20049;-72
2021/12/04 00:43:15;;;;;;;53.55;23.55;;;;;;;;;;5054076;28;20049;-72
2021/12/04 00:51:34;;;;;;;43.00;24.05;;;;;;;;;;5053622;28;20080;-72
2021/12/04 00:54:01;;;;;;;111.00;25.40;;;;;;;;;;5053277;28;20087;-72
2021/12/04 00:56:27;;;;;;;48.47;20.88;;;;;;;;;;5053648;28;20056;-72
2021/12/04 00:58:54;;;;;;;39.40;20.35;;;;;;;;;;5053257;28;20144;-72
2021/12/04 01:01:20;;;;;;;42.65;21.05;;;;;;;;;;5053288;28;20056;-72
2021/12/04 01:03:47;;;;;;;40.67;20.60;;;;;;;;;;5053469;28;20053;-72
2021/12/04 01:06:13;;;;;;;48.95;22.20;;;;;;;;;;5053346;28;20084;-73
2021/12/04 01:08:40;;;;;;;63.33;21.80;;;;;;;;;;5053070;28;20217;-72
2021/12/04 01:11:06;;;;;;;33.97;22.05;;;;;;;;;;5053067;28;20523;-72
2021/12/04 01:13:33;;;;;;;31.67;20.80;;;;;;;;;;5052967;28;20071;-72
2021/12/04 01:15:59;;;;;;;35.20;21.13;;;;;;;;;;5051674;28;20099;-72
2021/12/04 01:18:26;;;;;;;32.67;19.58;;;;;;;;;;5053079;28;20136;-72
2021/12/04 01:20:53;;;;;;;30.50;19.45;;;;;;;;;;5052863;28;20122;-72
2021/12/04 01:23:20;;;;;;;29.08;19.42;;;;;;;;;;5053180;28;20111;-72
2021/12/04 01:25:46;;;;;;;31.48;19.85;;;;;;;;;;5053076;28;20059;-72
2021/12/04 01:28:13;;;;;;;26.77;17.92;;;;;;;;;;5052688;28;20088;-72
2021/12/04 01:30:40;;;;;;;28.05;18.10;;;;;;;;;;5051806;28;20503;-72
2021/12/04 01:33:06;;;;;;;26.55;18.02;;;;;;;;;;5052911;28;20124;-72
2021/12/04 01:35:33;;;;;;;25.55;16.98;;;;;;;;;;5053234;28;20416;-72
2021/12/04 01:38:00;;;;;;;24.48;17.65;;;;;;;;;;5052628;28;20083;-72
2021/12/04 01:40:27;;;;;;;24.95;17.17;;;;;;;;;;5052722;28;20052;-72
2021/12/04 01:42:54;;;;;;;26.63;17.48;;;;;;;;;;5052706;28;20080;-72
2021/12/04 01:45:20;;;;;;;28.67;17.45;;;;;;;;;;5052546;28;20104;-72
2021/12/04 01:47:47;;;;;;;24.70;16.63;;;;;;;;;;5052714;28;20107;-72
2021/12/04 01:50:13;;;;;;;26.90;17.75;;;;;;;;;;5052149;28;20096;-72
2021/12/04 01:52:39;;;;;;;27.35;18.08;;;;;;;;;;5052337;28;20550;-72
2021/12/04 01:55:07;;;;;;;30.95;19.48;;;;;;;;;;5052223;28;20049;-72
2021/12/04 01:57:33;;;;;;;31.63;19.15;;;;;;;;;;5052625;28;20049;-72
2021/12/04 02:00:00;;;;;;;28.95;18.20;;;;;;;;;;5052657;28;20076;-72
2021/12/04 02:02:26;;;;;;;22.88;16.30;;;;;;;;;;5052102;28;20080;-72
2021/12/04 02:04:53;;;;;;;31.95;17.60;;;;;;;;;;5045238;28;20053;-72
2021/12/04 02:07:36;;;;;;;27.83;17.40;;;;;;;;;;5052186;28;20596;-72
2021/12/04 02:10:06;;;;;;;22.58;16.65;;;;;;;;;;5051884;28;20107;-72
2021/12/04 02:12:33;;;;;;;24.20;16.55;;;;;;;;;;5051953;28;20057;-72
2021/12/04 02:15:02;;;;;;;25.17;15.05;;;;;;;;;;5052160;28;20045;-72
2021/12/04 02:17:28;;;;;;;28.65;17.08;;;;;;;;;;5051917;28;20067;-72
2021/12/04 02:19:55;;;;;;;25.40;16.48;;;;;;;;;;5051761;28;20107;-72
2021/12/04 02:22:21;;;;;;;25.20;15.95;;;;;;;;;;5052036;28;20091;-72
2021/12/04 02:24:48;;;;;;;24.23;16.30;;;;;;;;;;5052142;28;20049;-72
2021/12/04 02:27:14;;;;;;;22.52;15.20;;;;;;;;;;5051821;28;20052;-72
2021/12/04 02:29:47;;;;;;;23.08;16.17;;;;;;;;;;5051692;28;20049;-72
2021/12/04 02:32:14;;;;;;;23.42;16.20;;;;;;;;;;5051888;28;20049;-72
2021/12/04 02:34:41;;;;;;;20.00;15.20;;;;;;;;;;5050491;28;20053;-71
2021/12/04 02:37:08;;;;;;;24.08;14.93;;;;;;;;;;5051861;28;20041;-71
2021/12/04 02:39:36;;;;;;;18.73;14.43;;;;;;;;;;5051929;28;20099;-71
2021/12/04 02:42:06;;;;;;;19.05;12.85;;;;;;;;;;5051427;28;20107;-71
2021/12/04 02:44:36;;;;;;;22.67;13.35;;;;;;;;;;5051577;28;20558;-72
2021/12/04 02:47:03;;;;;;;20.83;13.50;;;;;;;;;;5051422;28;20562;-72
2021/12/04 02:49:30;;;;;;;21.83;12.77;;;;;;;;;;5051779;28;20099;-72
2021/12/04 02:52:06;;;;;;;20.58;11.45;;;;;;;;;;5051501;28;20566;-72
2021/12/04 02:54:34;;;;;;;21.33;12.00;;;;;;;;;;5051444;28;20485;-72
2021/12/04 02:57:01;;;;;;;20.77;12.30;;;;;;;;;;5051639;28;20052;-72
2021/12/04 02:59:27;;;;;;;19.77;12.32;;;;;;;;;;5051565;28;20048;-72
2021/12/04 03:01:55;;;;;;;18.30;11.73;;;;;;;;;;5050247;28;20094;-72
2021/12/04 03:04:24;;;;;;;20.40;12.27;;;;;;;;;;5051241;28;20091;-72
2021/12/04 03:06:51;;;;;;;18.95;11.95;;;;;;;;;;5051389;28;20053;-72
2021/12/04 03:09:17;;;;;;;19.55;12.05;;;;;;;;;;5051448;28;20459;-72
2021/12/04 03:11:44;;;;;;;20.42;12.65;;;;;;;;;;5051740;28;20134;-72
2021/12/04 03:14:11;;;;;;;20.83;15.25;;;;;;;;;;5051056;28;20057;-72
2021/12/04 03:16:38;;;;;;;15.38;10.95;;;;;;;;;;5051222;28;20409;-72
2021/12/04 03:19:05;;;;;;;;;;;;;;;;;;5054332;28;20048;-72
2021/12/04 03:21:33;;;;;;;15.63;10.23;;;;;;;;;;5055175;28;20332;-72
2021/12/04 03:24:18;;;;;;;15.77;9.65;;;;;;;;;;5055186;28;20171;-72
2021/12/04 03:26:46;;;;;;;18.23;11.32;;;;;;;;;;5055076;28;20049;-73
2021/12/04 03:29:17;;;;;;;18.48;10.82;;;;;;;;;;5054905;28;20053;-73
2021/12/04 03:42:25;;;;;;;15.00;9.10;;;;;;;;;;5055199;28;20045;-74
2021/12/04 03:44:52;;;;;;;13.93;7.97;;;;;;;;;;5054660;28;20045;-75
2021/12/04 03:47:19;;;;;;;11.88;7.70;;;;;;;;;;5055045;28;20471;-74
2021/12/04 03:49:46;;;;;;;11.52;7.25;;;;;;;;;;5054830;28;20091;-75
2021/12/04 03:52:13;;;;;;;8.57;6.10;;;;;;;;;;5053502;28;20053;-74
2021/12/04 03:54:40;;;;;;;8.90;6.18;;;;;;;;;;5054644;28;20071;-75
2021/12/04 03:57:07;;;;;;;9.85;5.85;;;;;;;;;;5052355;28;20053;-75
2021/12/04 03:59:37;;;;;;;12.18;5.18;;;;;;;;;;5042993;28;20558;-75
2021/12/04 04:02:05;;;;;;;8.10;5.00;;;;;;;;;;5054419;28;20048;-75
2021/12/04 04:04:31;;;;;;;;;;;;;;;;;;5055000;28;20053;-75
2021/12/04 04:07:01;;;;;;;5.88;3.63;;;;;;;;;;5054603;28;19920;-75
2021/12/04 04:09:28;;;;;;;6.47;3.97;;;;;;;;;;5054760;28;20045;-75
2021/12/04 04:11:54;;;;;;;7.30;4.43;;;;;;;;;;5054426;28;20507;-75
2021/12/04 04:14:22;;;;;;;5.32;4.53;;;;;;;;;;5054407;28;20060;-75
2021/12/04 04:16:49;;;;;;;7.15;4.90;;;;;;;;;;5054372;28;20111;-75
2021/12/04 04:19:15;;;;;;;6.47;4.43;;;;;;;;;;5054232;28;20459;-74
2021/12/04 04:21:42;;;;;;;8.48;4.72;;;;;;;;;;5054341;28;20049;-75
2021/12/04 04:24:09;;;;;;;10.00;5.22;;;;;;;;;;5054049;28;20048;-75
2021/12/04 04:26:36;;;;;;;9.50;4.93;;;;;;;;;;5054235;28;20053;-74
2021/12/04 04:29:03;;;;;;;10.48;5.25;;;;;;;;;;5053708;28;20099;-74
2021/12/04 04:31:30;;;;;;;13.60;6.05;;;;;;;;;;5054031;28;20114;-74
2021/12/04 04:34:08;;;;;;;12.90;5.97;;;;;;;;;;5054048;28;20037;-74
2021/12/04 05:12:29;;;;;;;3.85;1.52;;;;;;;;;;5052946;28;20048;-74
2021/12/04 05:15:00;;;;;;;4.97;1.48;;;;;;;;;;5053042;28;20044;-74
2021/12/04 05:17:41;;;;;;;6.45;1.50;;;;;;;;;;5053044;28;20049;-74
2021/12/04 05:20:10;;;;;;;3.08;1.20;;;;;;;;;;5053061;28;20451;-73
2021/12/04 05:22:36;;;;;;;6.05;1.67;;;;;;;;;;5052975;28;20462;-74
2021/12/04 05:25:03;;;;;;;2.58;1.08;;;;;;;;;;5052840;28;20095;-74
2021/12/04 05:27:29;;;;;;;4.25;1.00;;;;;;;;;;5053020;28;20048;-74
2021/12/04 05:29:56;;;;;;;5.35;1.05;;;;;;;;;;5053103;28;20048;-74
2021/12/04 05:32:22;;;;;;;4.32;1.05;;;;;;;;;;5053044;28;20048;-73
2021/12/04 05:34:49;;;;;;;2.85;0.93;;;;;;;;;;5052615;28;20098;-74
2021/12/04 05:37:15;;;;;;;3.58;0.70;;;;;;;;;;5052592;28;20122;-73
2021/12/04 05:39:42;;;;;;;5.32;1.00;;;;;;;;;;5052279;28;20562;-73
2021/12/04 05:42:08;;;;;;;3.60;0.82;;;;;;;;;;5052371;28;20045;-74
2021/12/04 05:44:35;;;;;;;3.08;0.65;;;;;;;;;;5052822;28;20060;-74
2021/12/04 05:47:15;;;;;;;5.22;0.90;;;;;;;;;;5052401;28;20103;-74
2021/12/04 05:57:08;;;;;;;5.13;1.02;;;;;;;;;;5052197;28;20049;-73
2021/12/04 05:59:35;;;;;;;4.90;1.05;;;;;;;;;;5051048;28;20048;-73
2021/12/04 06:02:01;;;;;;;6.35;1.00;;;;;;;;;;5052136;28;20053;-73
2021/12/04 06:04:28;;;;;;;5.28;0.82;;;;;;;;;;5052433;28;20126;-73
2021/12/04 06:06:55;;;;;;;5.75;1.05;;;;;;;;;;5052465;28;20441;-73
2021/12/04 06:09:22;;;;;;;3.20;0.80;;;;;;;;;;5052304;28;20063;-73
2021/12/04 06:11:48;;;;;;;3.38;0.82;;;;;;;;;;5052322;28;20071;-74
2021/12/04 06:14:15;;;;;;;4.22;0.95;;;;;;;;;;5052299;28;20484;-73
2021/12/04 06:16:41;;;;;;;4.03;0.90;;;;;;;;;;5052085;28;20048;-73
2021/12/04 06:19:14;;;;;;;5.15;0.98;;;;;;;;;;5051958;28;20056;-74
2021/12/04 06:24:25;;;;;;;4.68;0.98;;;;;;;;;;5052289;28;20103;-73
2021/12/04 06:26:51;;;;;;;3.97;1.60;;;;;;;;;;5050443;28;20111;-73
2021/12/04 06:29:18;;;;;;;3.00;1.20;;;;;;;;;;5051728;28;20057;-73
2021/12/04 06:31:44;;;;;;;4.32;1.10;;;;;;;;;;5051798;28;20045;-73
2021/12/04 06:34:11;;;;;;;5.10;1.33;;;;;;;;;;5042315;28;20053;-73
2021/12/04 06:36:37;;;;;;;4.63;0.90;;;;;;;;;;5047441;28;20053;-73
2021/12/04 06:39:05;;;;;;;7.57;1.10;;;;;;;;;;5051715;28;20041;-73
2021/12/04 06:41:31;;;;;;;6.30;1.00;;;;;;;;;;5051673;28;20061;-73
2021/12/04 06:43:58;;;;;;;5.53;1.08;;;;;;;;;;5051557;28;20554;-73
2021/12/04 06:46:25;;;;;;;8.00;1.45;;;;;;;;;;5051722;28;20455;-73
2021/12/04 06:49:16;;;;;;;8.20;1.05;;;;;;;;;;5051602;28;20075;-73
2021/12/04 06:51:47;;;;;;;7.40;1.25;;;;;;;;;;5051621;28;20096;-72
2021/12/04 06:54:20;;;;;;;6.78;1.25;;;;;;;;;;5051683;28;20083;-72
2021/12/04 06:56:46;;;;;;;6.95;1.10;;;;;;;;;;5051644;28;20048;-73
2021/12/04 06:59:18;;;;;;;6.90;1.08;;;;;;;;;;5051804;28;20041;-73
2021/12/04 07:01:45;;;;;;;8.60;1.92;;;;;;;;;;5051425;28;20455;-72
2021/12/04 07:04:12;;;;;;;9.60;1.40;;;;;;;;;;5051312;28;20520;-73
2021/12/04 07:06:38;;;;;;;11.48;1.58;;;;;;;;;;5051601;28;20079;-73
2021/12/04 07:09:06;;;;;;;11.50;1.67;;;;;;;;;;5051407;28;20056;-73
2021/12/04 07:11:32;;;;;;;8.52;0.93;;;;;;;;;;5051576;28;20049;-73
2021/12/04 07:13:59;;;;;;;9.15;1.35;;;;;;;;;;5049868;28;20099;-73
2021/12/04 07:16:26;;;;;;;10.70;1.10;;;;;;;;;;5051567;28;20041;-73
2021/12/04 07:18:53;;;;;;;9.65;1.65;;;;;;;;;;5051550;28;20049;-73
2021/12/04 07:21:19;;;;;;;9.77;1.58;;;;;;;;;;5051642;28;20049;-72
2021/12/04 07:23:46;;;;;;;9.95;2.00;;;;;;;;;;5051512;28;20049;-73
2021/12/04 07:26:12;;;;;;;12.80;4.35;;;;;;;;;;5051357;28;20057;-73
2021/12/04 07:28:39;;;;;;;9.38;1.73;;;;;;;;;;5051625;28;20052;-73
2021/12/04 07:31:05;;;;;;;8.60;2.30;;;;;;;;;;5051133;28;20045;-73
2021/12/04 07:33:32;;;;;;;7.60;1.63;;;;;;;;;;5051044;28;20144;-72
2021/12/04 07:36:00;;;;;;;8.82;1.83;;;;;;;;;;5051046;28;20493;-72
2021/12/04 07:38:27;;;;;;;5.88;2.28;;;;;;;;;;5050005;28;20092;-72
2021/12/04 07:40:54;;;;;;;10.63;2.38;;;;;;;;;;5051046;28;20060;-72
2021/12/04 07:43:20;;;;;;;10.95;2.22;;;;;;;;;;5051096;28;20087;-72
2021/12/04 07:45:47;;;;;;;8.65;1.58;;;;;;;;;;5051216;28;20079;-72
2021/12/04 07:48:14;;;;;;;8.15;1.40;;;;;;;;;;5050972;28;20045;-72
2021/12/04 07:50:40;;;;;;;8.60;1.70;;;;;;;;;;5050796;28;20493;-73
2021/12/04 07:53:07;;;;;;;6.95;1.50;;;;;;;;;;5051108;28;20471;-72
2021/12/04 07:55:33;;;;;;;7.07;1.33;;;;;;;;;;5050833;28;20083;-72
2021/12/04 07:58:00;;;;;;;5.75;1.55;;;;;;;;;;5051090;28;20382;-71
2021/12/04 08:00:27;;;;;;;8.00;1.55;;;;;;;;;;5050824;28;20550;-72
2021/12/04 08:02:53;;;;;;;8.80;2.47;;;;;;;;;;5051190;28;20048;-72
2021/12/04 08:05:20;;;;;;;7.50;1.63;;;;;;;;;;5054587;28;20056;-72
2021/12/04 08:07:47;;;;;;;6.95;1.95;;;;;;;;;;5054639;28;20554;-72
2021/12/04 08:10:16;;;;;;;7.95;1.42;;;;;;;;;;5054237;28;20049;-72
2021/12/04 08:12:42;;;;;;;7.05;1.10;;;;;;;;;;5052104;28;20527;-74
2021/12/04 08:15:09;;;;;;;5.57;1.40;;;;;;;;;;5052722;28;20041;-73
2021/12/04 08:17:37;;;;;;;7.82;2.50;;;;;;;;;;5053804;28;20041;-73
2021/12/04 08:20:05;;;;;;;12.27;2.42;;;;;;;;;;5029892;28;20105;-74
2021/12/04 08:22:33;;;;;;;14.20;2.13;;;;;;;;;;5014472;28;20104;-72
2021/12/04 08:25:00;;;;;;;8.55;1.90;;;;;;;;;;5014401;28;20084;-73
2021/12/04 08:27:26;;;;;;;13.98;3.30;;;;;;;;;;5016768;28;20046;-74
2021/12/04 08:29:53;;;;;;;8.85;2.70;;;;;;;;;;5030911;28;20046;-70
2021/12/04 08:32:23;;;;;;;19.20;7.43;;;;;;;;;;5025478;28;20053;-69
2021/12/04 08:34:50;;;;;;;20.20;7.03;;;;;;;;;;5029168;28;20053;-70
2021/12/04 08:37:17;;;;;;;8.80;3.20;;;;;;;;;;5017570;28;20448;-70
2021/12/04 08:39:44;;;;;;;14.50;6.45;;;;;;;;;;5012661;28;20050;-70
2021/12/04 08:42:11;;;;;;;8.50;2.53;;;;;;;;;;5013458;28;20065;-70
2021/12/04 08:44:38;;;;;;;14.05;5.03;;;;;;;;;;5013461;28;20457;-70
2021/12/04 08:47:04;;;;;;;8.43;2.25;;;;;;;;;;5028818;28;20054;-70
2021/12/04 08:49:32;;;;;;;8.18;4.95;;;;;;;;;;5032947;28;20041;-70
2021/12/04 08:52:00;;;;;;;12.85;6.45;;;;;;;;;;5020024;28;20053;-71
2021/12/04 08:54:27;;;;;;;9.63;3.08;;;;;;;;;;5027656;28;20559;-70
2021/12/04 08:56:53;;;;;;;8.63;3.35;;;;;;;;;;5026083;28;20426;-71
2021/12/04 08:59:20;;;;;;;7.03;2.40;;;;;;;;;;5013232;28;20096;-71
2021/12/04 09:01:47;;;;;;;7.88;2.50;;;;;;;;;;5014673;28;20042;-71
2021/12/04 09:04:19;;;;;;;8.80;2.28;;;;;;;;;;5013416;28;20132;-70
2021/12/04 09:06:46;;;;;;;7.32;3.35;;;;;;;;;;5013437;28;20045;-70
2021/12/04 09:09:13;;;;;;;9.77;2.47;;;;;;;;;;5015981;28;20069;-69
2021/12/04 09:11:43;;;;;;;6.65;1.50;;;;;;;;;;5020537;28;20107;-67
2021/12/04 09:14:11;;;;;;;9.38;2.67;;;;;;;;;;5032677;28;20060;-74
2021/12/04 09:16:37;;;;;;;;;;;;;;;;;;5032823;28;20547;-74
2021/12/04 09:19:04;;;;;;;7.32;1.52;;;;;;;;;;5033460;28;19925;-72
2021/12/04 09:21:30;;;;;;;6.15;1.40;;;;;;;;;;5032961;28;20497;-72
2021/12/04 09:24:05;;;;;;;4.32;1.50;;;;;;;;;;5032875;28;20115;-72
2021/12/04 09:26:44;;;;;;;5.80;1.90;;;;;;;;;;5012714;28;20050;-71
2021/12/04 09:40:21;;;;;;;3.88;1.33;;;;;;;;;;5015512;28;20107;-71
2021/12/04 10:00:05;;;;;;;7.00;2.20;;;;;;;;;;5032460;28;20041;-74
2021/12/04 10:34:32;;;;;;;15.52;10.35;;;;;;;;;;5031803;28;20041;-74
2021/12/04 10:37:06;;;;;;;13.43;8.07;;;;;;;;;;5032088;28;20481;-74
2021/12/04 10:39:32;;;;;;;9.38;4.28;;;;;;;;;;5031920;28;20054;-74
2021/12/04 10:42:02;;;;;;;8.80;3.60;;;;;;;;;;5031750;28;20060;-74
2021/12/04 10:44:28;;;;;;;7.22;3.30;;;;;;;;;;5031936;28;20127;-74
2021/12/04 10:46:55;;;;;;;6.03;2.13;;;;;;;;;;5030999;28;20053;-73
2021/12/04 10:49:29;;;;;;;6.20;3.00;;;;;;;;;;5030916;28;20317;-74
2021/12/04 10:52:02;;;;;;;11.35;6.38;;;;;;;;;;5029669;28;20045;-74
2021/12/04 10:54:33;;;;;;;4.63;2.65;;;;;;;;;;5030975;28;20087;-74
2021/12/04 11:00:07;;;;;;;8.38;2.97;;;;;;;;;;5030841;28;20099;-74
2021/12/04 11:02:41;;;;;;;6.32;2.60;;;;;;;;;;5049980;28;20103;-75
2021/12/04 11:22:28;;;;;;;4.00;1.25;;;;;;;;;;5051598;28;20078;-72
2021/12/04 11:46:45;;;;;;;3.63;1.20;;;;;;;;;;5054787;28;20432;-73
2021/12/04 11:49:15;;;;;;;4.10;0.88;;;;;;;;;;5055223;28;20091;-73
2021/12/04 11:51:46;;;;;;;2.42;0.80;;;;;;;;;;5054640;28;20513;-72
2021/12/04 11:54:13;;;;;;;3.50;1.00;;;;;;;;;;5054589;28;20048;-73
2021/12/04 11:56:39;;;;;;;2.90;0.80;;;;;;;;;;5054642;28;20488;-74
2021/12/04 11:59:06;;;;;;;5.97;1.03;;;;;;;;;;5054723;28;20049;-72
2021/12/04 12:01:36;;;;;;;3.88;0.90;;;;;;;;;;5054869;28;20052;-72
2021/12/04 12:04:03;;;;;;;4.60;1.70;;;;;;;;;;5054691;28;20099;-72
2021/12/04 12:06:33;;;;;;;3.78;0.98;;;;;;;;;;5054782;28;20049;-72
2021/12/04 12:09:02;;;;;;;3.95;0.90;;;;;;;;;;5053689;28;20061;-72
2021/12/04 12:11:29;;;;;;;5.47;1.00;;;;;;;;;;5053894;28;20041;-72
2021/12/04 12:14:15;;;;;;;4.00;1.30;;;;;;;;;;5053703;28;20060;-73
2021/12/04 12:16:46;;;;;;;3.67;0.77;;;;;;;;;;5054028;28;20432;-72
2021/12/04 12:19:25;;;;;;;4.35;1.00;;;;;;;;;;5052516;28;20051;-73
2021/12/04 12:21:58;;;;;;;4.43;1.08;;;;;;;;;;5053985;28;20071;-73
2021/12/04 12:38:35;;;;;;;4.40;0.88;;;;;;;;;;5054087;28;20053;-73
2021/12/04 12:41:08;;;;;;;5.00;1.10;;;;;;;;;;5053876;28;20040;-73
2021/12/04 12:43:40;;;;;;;7.25;1.33;;;;;;;;;;5052500;28;20052;-73
2021/12/04 12:46:07;;;;;;;4.78;1.20;;;;;;;;;;5053641;28;20446;-73
2021/12/04 12:48:49;;;;;;;5.35;1.20;;;;;;;;;;5053576;28;20049;-73
2021/12/04 12:51:21;;;;;;;4.53;1.10;;;;;;;;;;5053882;28;20045;-74
2021/12/04 12:53:48;;;;;;;4.25;1.27;;;;;;;;;;5053462;28;20045;-74
2021/12/04 12:56:15;;;;;;;4.60;1.63;;;;;;;;;;5053598;28;20106;-74
2021/12/04 12:58:59;;;;;;;12.73;4.47;;;;;;;;;;5053467;28;20052;-74
2021/12/04 13:12:57;;;;;;;5.13;2.50;;;;;;;;;;5053088;28;20197;-73
2021/12/04 13:15:37;;;;;;;4.05;1.35;;;;;;;;;;5053584;28;20057;-73
2021/12/04 13:18:16;;;;;;;5.15;3.03;;;;;;;;;;5053302;28;20064;-73
2021/12/04 13:20:43;;;;;;;6.03;2.40;;;;;;;;;;5053133;28;20575;-73
2021/12/04 13:23:10;;;;;;;6.18;2.65;;;;;;;;;;5052938;28;20102;-73
2021/12/04 13:25:37;;;;;;;3.83;1.45;;;;;;;;;;5052991;28;20488;-73
2021/12/04 13:30:32;;;;;;;5.22;2.15;;;;;;;;;;5052812;28;20057;-73
2021/12/04 13:32:58;;;;;;;4.90;1.58;;;;;;;;;;5052762;28;20120;-73
2021/12/04 13:35:25;;;;;;;6.10;2.05;;;;;;;;;;5053174;28;20052;-73
2021/12/04 13:37:55;;;;;;;5.93;1.00;;;;;;;;;;5052919;28;20052;-74
2021/12/04 13:40:21;;;;;;;5.80;1.00;;;;;;;;;;5052865;28;20282;-74
2021/12/04 13:42:48;;;;;;;4.00;1.08;;;;;;;;;;5051510;28;20049;-74
2021/12/04 13:45:16;;;;;;;6.93;1.15;;;;;;;;;;5052644;28;20067;-74
2021/12/04 13:47:43;;;;;;;6.60;1.48;;;;;;;;;;5052670;28;20049;-74
2021/12/04 13:52:57;;;;;;;4.03;1.00;;;;;;;;;;5052424;28;20107;-74
2021/12/04 13:55:24;;;;;;;4.53;0.90;;;;;;;;;;5052614;28;20056;-74
2021/12/04 13:57:51;;;;;;;5.00;1.17;;;;;;;;;;5052630;28;20053;-74
2021/12/04 14:00:18;;;;;;;4.40;0.90;;;;;;;;;;5052136;28;20049;-74
2021/12/04 14:02:44;;;;;;;4.65;1.35;;;;;;;;;;5051943;28;20041;-74
2021/12/04 14:05:13;;;;;;;3.70;1.35;;;;;;;;;;5052288;28;20059;-73
2021/12/04 14:07:52;;;;;;;5.57;3.00;;;;;;;;;;5050804;28;20087;-74
2021/12/04 14:10:20;;;;;;;5.32;1.83;;;;;;;;;;5052149;28;20052;-73
2021/12/04 14:12:47;;;;;;;4.97;1.30;;;;;;;;;;5050843;28;20488;-74
2021/12/04 14:15:15;;;;;;;5.93;1.30;;;;;;;;;;5052211;28;20045;-74
2021/12/04 14:17:42;;;;;;;4.70;1.65;;;;;;;;;;5052260;28;20049;-72
2021/12/04 14:20:09;;;;;;;5.23;1.23;;;;;;;;;;5024166;28;20044;-71
2021/12/04 14:22:43;;;;;;;3.95;1.27;;;;;;;;;;5051924;28;20094;-73
2021/12/04 14:25:11;;;;;;;5.43;2.13;;;;;;;;;;5051840;28;20041;-72
2021/12/04 14:27:38;;;;;;;5.10;1.10;;;;;;;;;;5051918;28;20053;-68
2021/12/04 14:30:13;;;;;;;6.40;1.73;;;;;;;;;;5051956;28;20110;-69
2021/12/04 14:32:42;;;;;;;6.32;2.00;;;;;;;;;;5052143;28;20049;-70
2021/12/04 14:35:16;;;;;;;5.15;1.77;;;;;;;;;;5051889;28;20049;-69
2021/12/04 14:37:44;;;;;;;4.72;1.40;;;;;;;;;;5051457;28;20049;-70
2021/12/04 14:40:13;;;;;;;5.45;1.92;;;;;;;;;;5031011;28;20084;-70
2021/12/04 14:42:40;;;;;;;3.78;1.77;;;;;;;;;;5037079;28;20098;-69
2021/12/04 14:45:07;;;;;;;;;;;;;;;;;;5051864;28;20102;-71
2021/12/04 14:47:37;;;;;;;7.25;1.40;;;;;;;;;;5044119;28;20085;-70
2021/12/04 14:50:05;;;;;;;5.15;1.30;;;;;;;;;;5032617;28;20057;-70
2021/12/04 14:52:33;;;;;;;5.82;2.30;;;;;;;;;;5031113;28;20042;-70
2021/12/04 14:55:10;;;;;;;4.55;1.60;;;;;;;;;;5031212;28;20099;-71
2021/12/04 14:57:36;;;;;;;;;;;;;;;;;;5031990;28;20053;-71
2021/12/04 15:00:03;;;;;;;6.13;2.05;;;;;;;;;;5049066;28;20015;-70
2021/12/04 15:02:30;;;;;;;5.40;1.20;;;;;;;;;;5052006;28;20049;-75
2021/12/04 15:04:56;;;;;;;8.93;2.97;;;;;;;;;;5051426;28;20053;-68
2021/12/04 15:07:27;;;;;;;6.25;2.33;;;;;;;;;;5051585;28;20444;-74
2021/12/04 15:09:54;;;;;;;6.20;1.88;;;;;;;;;;5051448;28;20098;-75
2021/12/04 15:12:40;;;;;;;8.73;3.22;;;;;;;;;;5052012;28;20106;-69
2021/12/04 15:15:08;;;;;;;7.45;1.90;;;;;;;;;;5054542;28;20041;-69
2021/12/04 15:17:34;;;;;;;;;;;;;;;;;;5056075;28;20079;-76
2021/12/04 15:20:06;;;;;;;6.60;2.05;;;;;;;;;;5055260;28;19921;-73
2021/12/04 15:22:36;;;;;;;7.07;2.10;;;;;;;;;;5055280;28;20053;-74
2021/12/04 15:25:08;;;;;;;8.50;2.13;;;;;;;;;;5055424;28;20041;-67
2021/12/04 15:27:35;;;;;;;5.75;1.33;;;;;;;;;;5055362;28;20053;-78
2021/12/04 15:30:04;;;;;;;9.00;4.00;;;;;;;;;;5054988;28;20067;-69
2021/12/04 15:32:31;;;;;;;6.15;2.17;;;;;;;;;;5055030;28;20049;-77
2021/12/04 15:35:07;;;;;;;7.57;2.80;;;;;;;;;;5055014;28;20069;-77
2021/12/04 15:40:29;;;;;;;4.82;1.50;;;;;;;;;;5063865;28;20099;-76
2021/12/04 15:43:11;;;;;;;10.05;4.10;;;;;;;;;;5053924;28;20118;-74
2021/12/04 15:45:55;;;;;;;7.97;1.77;;;;;;;;;;5055024;28;20057;-76
2021/12/04 15:53:20;;;;;;;5.38;1.75;;;;;;;;;;5054583;28;20049;-75
2021/12/04 15:55:49;;;;;;;4.43;1.52;;;;;;;;;;5053396;28;20041;-76
2021/12/04 15:58:18;;;;;;;10.10;4.90;;;;;;;;;;5053654;28;20052;-72
2021/12/04 16:00:49;;;;;;;6.35;4.32;;;;;;;;;;5054462;28;20057;-76
2021/12/04 16:03:16;;;;;;;10.40;6.00;;;;;;;;;;5054906;28;20096;-76
2021/12/04 16:05:45;;;;;;;29.85;17.45;;;;;;;;;;5054437;28;20094;-75
2021/12/04 16:08:13;;;;;;;17.88;11.07;;;;;;;;;;5054749;28;20455;-75
2021/12/04 16:10:39;;;;;;;;;;;;;;;;;;5055219;28;20052;-76
2021/12/04 16:13:11;;;;;;;11.85;7.60;;;;;;;;;;5053007;28;19970;-76
2021/12/04 16:15:37;;;;;;;;;;;;;;;;;;5054723;28;20075;-73
2021/12/04 16:18:04;;;;;;;14.75;8.85;;;;;;;;;;5054277;28;19947;-81
2021/12/04 16:20:31;;;;;;;10.25;3.65;;;;;;;;;;5054262;28;20053;-75
2021/12/04 16:22:59;;;;;;;9.55;2.17;;;;;;;;;;5054056;28;20049;-77
2021/12/04 16:25:31;;;;;;;5.07;2.03;;;;;;;;;;5045999;28;20099;-76
2021/12/04 16:28:03;;;;;;;10.75;2.72;;;;;;;;;;5033940;28;20103;-76
2021/12/04 16:30:40;;;;;;;7.78;2.20;;;;;;;;;;5034844;28;20049;-77
2021/12/04 16:38:01;;;;;;;8.60;3.75;;;;;;;;;;5043710;28;20063;-77
2021/12/04 16:40:32;;;;;;;6.22;4.03;;;;;;;;;;5041649;28;20053;-75
2021/12/04 16:43:02;;;;;;;5.88;1.60;;;;;;;;;;5053879;28;20057;-78
2021/12/04 16:45:30;;;;;;;3.90;1.50;;;;;;;;;;5054030;28;20122;-78
2021/12/04 16:48:00;;;;;;;4.20;1.70;;;;;;;;;;5049893;28;20463;-77
2021/12/04 16:50:41;;;;;;;6.70;1.65;;;;;;;;;;5033374;28;20053;-76
2021/12/04 16:58:32;;;;;;;4.75;2.20;;;;;;;;;;5039467;28;20094;-78
2021/12/04 17:00:59;;;;;;;3.08;1.02;;;;;;;;;;5039119;28;20107;-77
2021/12/04 17:03:26;;;;;;;18.95;14.88;;;;;;;;;;5048511;28;20076;-74
2021/12/04 17:05:53;;;;;;;8.37;4.70;;;;;;;;;;5053398;28;20140;-76
2021/12/04 17:08:20;;;;;;;33.63;15.30;;;;;;;;;;5049250;28;20805;-78
2021/12/04 17:10:47;;;;;;;7.72;4.03;;;;;;;;;;5043437;28;20106;-75
2021/12/04 17:13:13;;;;;;;7.15;2.65;;;;;;;;;;5053033;28;20106;-76
2021/12/04 17:15:46;;;;;;;6.00;3.35;;;;;;;;;;5053452;28;20044;-76
2021/12/04 17:18:16;;;;;;;6.53;2.10;;;;;;;;;;5053372;28;20103;-78
2021/12/04 17:20:47;;;;;;;9.55;6.05;;;;;;;;;;5052324;28;20044;-76
2021/12/04 17:23:14;;;;;;;6.18;1.98;;;;;;;;;;5053220;28;20057;-78
2021/12/04 17:25:41;;;;;;;3.78;3.08;;;;;;;;;;5052938;28;20053;-79
2021/12/04 17:28:10;;;;;;;5.65;3.97;;;;;;;;;;5053210;28;20107;-77
2021/12/04 17:30:37;;;;;;;7.47;2.15;;;;;;;;;;5039054;28;20053;-78
2021/12/04 17:33:04;;;;;;;3.80;1.60;;;;;;;;;;5053007;28;20049;-77
2021/12/04 17:35:31;;;;;;;7.40;2.20;;;;;;;;;;5052409;28;20045;-75
2021/12/04 17:38:00;;;;;;;4.32;2.08;;;;;;;;;;5045847;28;20330;-76
2021/12/04 17:40:27;;;;;;;11.80;9.32;;;;;;;;;;5038307;28;20481;-76
2021/12/04 17:42:54;;;;;;;6.65;3.00;;;;;;;;;;5052569;28;20053;-78
2021/12/04 17:45:21;;;;;;;5.43;2.90;;;;;;;;;;5050663;28;20056;-81
2021/12/04 17:47:48;;;;;;;6.63;1.92;;;;;;;;;;5052357;28;20056;-69
2021/12/04 17:50:17;;;;;;;4.05;1.40;;;;;;;;;;5051605;28;20053;-69
2021/12/04 17:52:43;;;;;;;5.55;1.42;;;;;;;;;;5052305;28;20481;-69
2021/12/04 17:55:11;;;;;;;6.47;1.60;;;;;;;;;;5052577;28;20056;-69
2021/12/04 17:57:43;;;;;;;6.78;1.30;;;;;;;;;;5068864;28;20410;-67
2021/12/04 18:00:19;;;;;;;3.92;1.48;;;;;;;;;;5068362;28;20109;-67
2021/12/04 18:02:45;;;;;;;4.60;1.67;;;;;;;;;;5068842;28;20048;-67
2021/12/04 18:05:14;;;;;;;4.75;1.38;;;;;;;;;;5068831;28;20044;-67
2021/12/04 18:07:40;;;;;;;;;;;;;;;;;;5068200;28;20053;-67
2021/12/04 18:10:09;;;;;;;3.22;1.42;;;;;;;;;;5068209;28;20449;-67
2021/12/04 18:12:38;;;;;;;7.47;2.63;;;;;;;;;;5068302;28;20550;-66
2021/12/04 18:15:11;;;;;;;6.72;2.65;;;;;;;;;;5068378;28;20574;-67
2021/12/04 18:17:38;;;;;;;14.07;7.43;;;;;;;;;;5068381;28;20051;-66
2021/12/04 18:20:05;;;;;;;4.28;1.70;;;;;;;;;;5068885;28;20424;-67
2021/12/04 18:22:31;;;;;;;7.03;2.75;;;;;;;;;;5068823;28;20049;-67
2021/12/04 18:24:58;;;;;;;7.20;3.40;;;;;;;;;;5068261;28;20094;-67
2021/12/04 18:27:24;;;;;;;9.55;5.47;;;;;;;;;;5068366;28;20079;-66